Flag Island, MN

5:36 AM CDT on July 21, 2017 (GMT -0500)
Flag Island

Weather History for KFGN - January, 2014

Change the Weather History Date:

Monday, January 27, 2014

  Actual Average Record
Temperature  
Mean Temperature -18 °F -  
Max Temperature -13 °F 10 °F 39 °F (2006)
Min Temperature -23 °F 0 °F -25 °F (2009)
Degree Days  
Heating Degree Days 83    
Moisture  
Dew Point -26 °F    
Average Humidity 70    
Maximum Humidity 76    
Minimum Humidity 59    
Precipitation  
Precipitation 0.00 in - - ()
Sea Level Pressure  
Sea Level Pressure 30.20 in    
Wind  
Wind Speed 16 mph (WNW)    
Max Wind Speed 21 mph    
Max Gust Speed 26 mph    
Visibility 10 miles    
Events      
Averages and records for this station are not official NWS values.
T = Trace of Precipitation, MM = Missing Value Source: NWS Daily Summary

Daily Weather History Graph

Daily Weather History Graph

Search for Another Location

Airport or City:

Trip Planner

Search our weather history database for the weather conditions in past years. The results will help you decide how hot, cold, wet, or windy it might be!

Date:

Astronomy

Jan. 27, 2014 Rise Set
Actual Time 7:57 AM CST 5:07 PM CST
Civil Twilight 7:22 AM CST 5:42 PM CST
Nautical Twilight 6:43 AM CST 6:21 PM CST
Astronomical Twilight 6:06 AM CST 6:58 PM CST
Moon 4:43 AM CST (1/27) 1:50 PM CST (1/27)
Length of Visible Light 10h 20m
Length of Day
9h 10m
Waning Crescent, 14% of the Moon is Illuminated
Jan 27
Waning Crescent
Jan 30
New
Feb 6
First Quarter
Feb 14
Full
Feb 22
Last Quarter

Hourly Weather History & Observations

Time (CST) Temp. Windchill Dew Point Humidity Pressure Visibility Wind Dir Wind Speed Gust Speed Precip Events Conditions
12:13 AM -20.2 °F -46.8 °F -27.4 °F 69% 30.08 in 10.0 mi NW 17.3 mph - N/A   Clear
12:34 AM -20.2 °F -48.9 °F -27.4 °F 69% 30.09 in 10.0 mi NW 20.7 mph - N/A   Clear
12:53 AM -20.2 °F -48.9 °F -27.4 °F 69% 30.09 in 7.0 mi NW 20.7 mph - N/A   Clear
1:13 AM -20.2 °F -48.9 °F -27.4 °F 69% 30.10 in 7.0 mi NW 20.7 mph - N/A   Clear
1:34 AM -20.2 °F -46.0 °F -27.4 °F 69% 30.10 in 10.0 mi NW 16.1 mph - N/A   Clear
1:53 AM -20.2 °F -46.8 °F -27.4 °F 69% 30.11 in 10.0 mi NW 17.3 mph - N/A   Clear
2:13 AM -20.2 °F -46.0 °F -27.4 °F 69% 30.11 in 10.0 mi NW 16.1 mph - N/A   Clear
2:34 AM -22.0 °F -49.9 °F -27.4 °F 76% 30.12 in 10.0 mi NW 18.4 mph - N/A   Clear
2:53 AM -22.0 °F -49.9 °F -27.4 °F 76% 30.13 in 10.0 mi NW 18.4 mph - N/A   Clear
3:13 AM -22.0 °F -50.6 °F -27.4 °F 76% 30.13 in 10.0 mi NW 19.6 mph - N/A   Clear
3:34 AM -22.0 °F -50.6 °F -27.4 °F 76% 30.13 in 7.0 mi NW 19.6 mph - N/A   Clear
3:53 AM -22.0 °F -51.3 °F -29.2 °F 69% 30.14 in 7.0 mi NW 20.7 mph 26.5 mph N/A   Clear
4:13 AM -22.0 °F -48.4 °F -29.2 °F 69% 30.15 in 10.0 mi NW 16.1 mph 21.9 mph N/A   Clear
4:34 AM -22.0 °F -49.1 °F -29.2 °F 69% 30.17 in 10.0 mi NW 17.3 mph 23.0 mph N/A   Clear
4:53 AM -22.0 °F -48.4 °F -29.2 °F 69% 30.18 in 10.0 mi NW 16.1 mph - N/A   Clear
5:13 AM -22.0 °F -48.4 °F -29.2 °F 69% 30.19 in 10.0 mi WNW 16.1 mph - N/A   Clear
5:34 AM -23.8 °F -51.5 °F -29.2 °F 76% 30.19 in 10.0 mi WNW 17.3 mph 21.9 mph N/A   Clear
5:53 AM -23.8 °F -49.8 °F -29.2 °F 76% 30.20 in 10.0 mi WNW 15.0 mph - N/A   Clear
6:13 AM -23.8 °F -52.2 °F -29.2 °F 76% 30.19 in 10.0 mi NW 18.4 mph - N/A   Clear
6:34 AM -23.8 °F -50.7 °F -29.2 °F 76% 30.20 in 10.0 mi NW 16.1 mph - N/A   Clear
6:53 AM -23.8 °F -51.5 °F -29.2 °F 76% 30.20 in 10.0 mi NW 17.3 mph - N/A   Clear
7:13 AM -23.8 °F -50.7 °F -29.2 °F 76% 30.21 in 10.0 mi NW 16.1 mph - N/A   Clear
7:34 AM -23.8 °F -52.2 °F -29.2 °F 76% 30.21 in 7.0 mi NW 18.4 mph 23.0 mph N/A   Clear
7:53 AM -23.8 °F -50.7 °F -29.2 °F 76% 30.22 in 10.0 mi NW 16.1 mph - N/A   Clear
8:13 AM -23.8 °F -50.7 °F -29.2 °F 76% 30.22 in 10.0 mi NW 16.1 mph - N/A   Clear
8:33 AM -23.8 °F -49.8 °F -29.2 °F 76% 30.23 in 10.0 mi NW 15.0 mph - N/A   Clear
8:53 AM -23.8 °F -48.9 °F -29.2 °F 76% 30.23 in 10.0 mi NW 13.8 mph 20.7 mph N/A   Clear
9:14 AM -23.8 °F -48.9 °F -29.2 °F 76% 30.24 in 10.0 mi NW 13.8 mph - N/A   Clear
9:33 AM -22.0 °F -45.7 °F -29.2 °F 69% 30.24 in 10.0 mi WNW 12.7 mph - N/A   Clear
9:53 AM -22.0 °F -45.7 °F -29.2 °F 69% 30.24 in 10.0 mi WNW 12.7 mph - N/A   Clear
10:14 AM -22.0 °F -47.5 °F -27.4 °F 76% 30.25 in 10.0 mi WNW 15.0 mph - N/A   Clear
10:33 AM -20.2 °F -41.3 °F -27.4 °F 69% 30.25 in 10.0 mi WNW 10.4 mph - N/A   Clear
10:53 AM -20.2 °F -45.2 °F -27.4 °F 69% 30.26 in 10.0 mi WNW 15.0 mph - N/A   Clear
11:14 AM -18.4 °F -44.5 °F -27.4 °F 63% 30.25 in 10.0 mi WNW 17.3 mph - N/A   Clear
11:33 AM -18.4 °F -44.5 °F -27.4 °F 63% 30.25 in 10.0 mi WNW 17.3 mph - N/A   Clear
11:53 AM -18.4 °F -42.9 °F -25.6 °F 70% 30.24 in 10.0 mi WNW 15.0 mph - N/A   Clear
12:14 PM -16.6 °F -40.6 °F -25.6 °F 64% 30.24 in 10.0 mi WNW 15.0 mph - N/A   Clear
12:33 PM -16.6 °F -40.6 °F -25.6 °F 64% 30.24 in 10.0 mi WNW 15.0 mph - N/A   Clear
12:53 PM -16.6 °F -42.1 °F -25.6 °F 64% 30.23 in 10.0 mi WNW 17.3 mph 23.0 mph N/A   Clear
1:13 PM -16.6 °F -41.4 °F -25.6 °F 64% 30.23 in 10.0 mi WNW 16.1 mph - N/A   Clear
1:33 PM -14.8 °F -36.6 °F -23.8 °F 64% 30.23 in 10.0 mi WNW 12.7 mph - N/A   Clear
1:54 PM -14.8 °F -39.1 °F -23.8 °F 64% 30.22 in 10.0 mi WNW 16.1 mph - N/A   Clear
2:13 PM -14.8 °F -37.5 °F -23.8 °F 64% 30.22 in 10.0 mi WNW 13.8 mph - N/A   Clear
2:33 PM -14.8 °F -36.6 °F -23.8 °F 64% 30.22 in 10.0 mi WNW 12.7 mph 17.3 mph N/A   Clear
2:54 PM -13.0 °F -36.0 °F -23.8 °F 59% 30.21 in 10.0 mi West 15.0 mph - N/A   Clear
3:13 PM -13.0 °F -35.2 °F -23.8 °F 59% 30.22 in 10.0 mi West 13.8 mph - N/A   Clear
3:33 PM -13.0 °F -35.2 °F -23.8 °F 59% 30.22 in 10.0 mi West 13.8 mph - N/A   Clear
3:54 PM -14.8 °F -36.6 °F -23.8 °F 64% 30.22 in 10.0 mi West 12.7 mph - N/A   Clear
4:13 PM -14.8 °F -35.6 °F -23.8 °F 64% 30.22 in 10.0 mi West 11.5 mph - N/A   Clear
4:34 PM -14.8 °F -33.5 °F -23.8 °F 64% 30.23 in 10.0 mi West 9.2 mph - N/A   Clear
4:54 PM -14.8 °F -35.6 °F -23.8 °F 64% 30.22 in 10.0 mi West 11.5 mph - N/A   Clear
5:13 PM -14.8 °F -32.2 °F -23.8 °F 64% 30.23 in 10.0 mi West 8.1 mph - N/A   Clear
5:34 PM -14.8 °F -30.8 °F -23.8 °F 64% 30.23 in 10.0 mi West 6.9 mph - N/A   Scattered Clouds
5:53 PM -14.8 °F -39.1 °F -23.8 °F 64% 30.22 in 10.0 mi West 16.1 mph 21.9 mph N/A   Clear
6:14 PM -16.6 °F -36.8 °F -23.8 °F 70% 30.22 in 10.0 mi West 10.4 mph - N/A   Clear
6:34 PM -16.6 °F -40.6 °F -23.8 °F 70% 30.23 in 10.0 mi West 15.0 mph - N/A   Clear
6:53 PM -16.6 °F -38.9 °F -23.8 °F 70% 30.22 in 10.0 mi West 12.7 mph - N/A   Clear
7:14 PM -16.6 °F -38.9 °F -23.8 °F 70% 30.22 in 10.0 mi West 12.7 mph - N/A   Scattered Clouds
7:34 PM -16.6 °F -38.9 °F -23.8 °F 70% 30.22 in 10.0 mi West 12.7 mph - N/A   Clear
7:53 PM -16.6 °F -38.9 °F -23.8 °F 70% 30.21 in 10.0 mi WNW 12.7 mph - N/A   Clear
8:14 PM -18.4 °F -40.2 °F -25.6 °F 70% 30.21 in 10.0 mi WNW 11.5 mph - N/A   Clear
8:33 PM -18.4 °F -40.2 °F -23.8 °F 76% 30.21 in 10.0 mi WNW 11.5 mph - N/A   Clear
8:53 PM -18.4 °F -40.2 °F -23.8 °F 76% 30.21 in 10.0 mi WNW 11.5 mph - N/A   Clear
9:14 PM -18.4 °F -40.2 °F -25.6 °F 70% 30.21 in 10.0 mi WNW 11.5 mph - N/A   Clear
9:33 PM -18.4 °F -39.1 °F -25.6 °F 70% 30.21 in 10.0 mi WNW 10.4 mph - N/A   Clear
9:54 PM -18.4 °F -37.9 °F -25.6 °F 70% 30.20 in 10.0 mi West 9.2 mph - N/A   Clear
10:13 PM -18.4 °F -39.1 °F -25.6 °F 70% 30.20 in 10.0 mi West 10.4 mph - N/A   Clear
10:33 PM -18.4 °F -40.2 °F -25.6 °F 70% 30.19 in 10.0 mi West 11.5 mph - N/A   Clear
10:54 PM -18.4 °F -39.1 °F -25.6 °F 70% 30.19 in 10.0 mi West 10.4 mph - N/A   Clear
11:13 PM -20.2 °F -42.4 °F -25.6 °F 76% 30.19 in 10.0 mi WNW 11.5 mph - N/A   Clear
11:33 PM -20.2 °F -41.3 °F -27.4 °F 69% 30.18 in 10.0 mi WNW 10.4 mph - N/A   Clear
11:54 PM -20.2 °F -41.3 °F -27.4 °F 69% 30.18 in 10.0 mi WNW 10.4 mph - N/A   Clear